Airfield :
LOGIN :

Register | Disclaimer

   EN    FR    IT 

 










Legend :    VFR   Marginal VFR   IFR   Intensive IFR   Very Intensive IFR
Visi :
Ceiling :
>= 8 km
>= 3000ft
5 to 8 km
1000 to 3000 ft
1500m to 5 km
500 to 1000 ft
800 to 1500m
200 to 500 ft
< 800m
< 200 ft
Symbols :   Thunderstorms  Fog  Heavy snow  Heavy precipitations  Wind > 20 kt
SIGMETs :     Misc.  Thunderstorms  Icing  Turbulence  Mountain Waves  Volcanic Ashes







- Airport Elevation : 49 ft
- IATA code : GLZ


EHGR - Gilze-Rijen Airbase

CURRENT METAR :
  • 231342Z AUTO 20014KT 140V230 9999 -DZ OVC024 10/07 Q1018 WHT 20015KT FEW015 SCT020 BKN030 TEMPO 4000 RADZ FEW007 SCT010 BKN012

EXPIRED METARs :
  • 231334Z AUTO 20013KT 160V240 8000 DZRA OVC026 09/07 Q1018 BLU 20015KT FEW015 SCT020 BKN030 TEMPO 4000 RADZ FEW007 SCT010 BKN012
  • 231325Z AUTO 20012KT 140V250 5000 -RA FEW023 OVC028 09/06 Q1018 RERA REDZ WHT 20015KT FEW015 SCT020 BKN030 TEMPO 4000 RADZ FEW007 SCT010 BKN012
  • 231259Z AUTO 20013KT 150V240 9999 DZ FEW015/// SCT031/// OVC035/// 10/06 Q1018 BLU 20015KT FEW015 SCT025 BKN040 BECMG FEW010 SCT015 BKN020
  • 231255Z AUTO 20015KT 150V240 9999 -RA FEW025 BKN035 OVC040 10/05 Q1019 BLU 20015KT FEW015 SCT025 BKN040 BECMG FEW010 SCT015 BKN020 RMK TS INFO NOT AVBL
  • 231242Z AUTO 20014KT 160V250 9999 OVC043 10/05 Q1019 BLU 20013KT CAVOK BECMG FEW012 SCT020 BKN040
  • 231225Z AUTO 20014KT 150V230 9999 OVC061 10/05 Q1019 BLU 20013KT CAVOK BECMG FEW015 SCT018 BKN040
  • 231205Z AUTO 19012KT 120V240 9999 SCT055 OVC160 10/06 Q1019 BLU 20013KT FEW040 BKN015 BECMG FEW015 SCT018 BKN040
  • 231155Z AUTO 19012KT 150V240 9999 BKN057 OVC170 09/06 Q1019 BLU 20014KT CAVOK BECMG SCT018 BKN100
  • 231137Z AUTO 19012KT 140V250 9999 FEW065 BKN170 09/06 Q1020 BLU 20014KT 9999 FEW030 BKN150 BECMG SCT018 BKN100
  • 231125Z AUTO 19012KT 140V240 9999 BKN033 BKN170 09/06 Q1020 BLU 20012KT 9999 FEW030
  • 231025Z AUTO 19010KT 150V240 9999 OVC036 08/06 Q1020 BLU 20008KT 9999 BKN029
  • 231055Z AUTO 19010KT 140V240 9999 OVC033 09/06 Q1020 BLU 20008KT 9999 BKN029

TAF TAF EHGR
Valid from the 23 at 10:00 until the 23 at 22:00 UTC


230929Z 2310/2322 21010KT 9999 SCT020 OVC030
PROB30
TEMPO 2310/2314 FEW012 BKN018
BECMG 2313/2315 -RA SCT007 OVC010
TEMPO 2315/2322 22012G22KT 4500 RADZ SCT004 OVC006
TEMPO 2321/2322 22012G22KT 3000 -DZ BKN002 OVC004
No reported NOTAMs for that airfield.



MET'MAP, your aeronautical weather chart ! - Copyright ORBIFLY December 2007 - Disclaimer

ORBIFLY MET'MAP TEAM :

Programming & Development : Alexandra Zaïnal
Concept & Development : Baudouin d'Aumeries
Co-Development & Prog : Marc-Olivier Méhu
Technical & hardware support : Manuel Goepfert

Contact : metmap@orbifly.com




SOURCES & CREDITS :

   NOAA